createdAt,value
2023-03-15T00:00:10.071Z,3.80
2023-03-15T00:03:04.228Z,3.90
2023-03-15T00:05:36.157Z,2.90
2023-03-15T00:08:09.734Z,3.50
2023-03-15T00:10:44.395Z,3.20
2023-03-15T00:13:17.493Z,3.50
2023-03-15T00:15:51.156Z,3.10
2023-03-15T00:18:23.170Z,2.80
2023-03-15T00:20:55.189Z,3.00
2023-03-15T00:23:27.416Z,3.30
2023-03-15T00:25:59.728Z,2.80
2023-03-15T00:28:31.953Z,2.50
2023-03-15T00:31:09.405Z,3.90
2023-03-15T00:33:41.645Z,2.30
2023-03-15T00:36:14.591Z,2.60
2023-03-15T00:38:46.488Z,3.70
2023-03-15T00:41:20.376Z,2.40
2023-03-15T00:43:53.676Z,2.90
2023-03-15T00:46:25.685Z,3.40
2023-03-15T00:48:57.637Z,1.90
2023-03-15T00:51:30.109Z,3.00
2023-03-15T00:54:01.917Z,2.00
2023-03-15T00:56:34.480Z,2.30
2023-03-15T00:59:06.697Z,2.90
2023-03-15T01:01:41.058Z,2.40
2023-03-15T01:04:13.059Z,2.30
2023-03-15T01:06:45.172Z,2.50
2023-03-15T01:09:17.386Z,2.00
2023-03-15T01:11:50.255Z,3.00
2023-03-15T01:14:22.133Z,2.40
2023-03-15T01:16:53.888Z,2.30
2023-03-15T01:19:25.871Z,1.60
2023-03-15T01:21:58.318Z,3.60
2023-03-15T01:24:30.121Z,2.10
2023-03-15T01:27:02.236Z,2.80
2023-03-15T01:29:34.226Z,1.70
2023-03-15T01:32:07.493Z,2.50
2023-03-15T01:34:39.418Z,2.50
2023-03-15T01:37:14.478Z,2.70
2023-03-15T01:39:51.227Z,3.10
2023-03-15T01:42:23.557Z,3.10
2023-03-15T01:45:00.949Z,2.20
2023-03-15T01:47:32.833Z,2.40
2023-03-15T01:50:08.898Z,2.20
2023-03-15T01:52:42.998Z,2.20
2023-03-15T01:55:22.774Z,2.10
2023-03-15T01:58:06.749Z,2.70
2023-03-15T02:00:41.092Z,2.80
2023-03-15T02:03:21.784Z,2.30
2023-03-15T02:05:58.604Z,2.20
2023-03-15T02:08:44.750Z,3.10
2023-03-15T02:11:18.942Z,2.70
2023-03-15T02:13:52.443Z,2.50
2023-03-15T02:16:26.149Z,2.60
2023-03-15T02:19:02.983Z,3.10
2023-03-15T02:21:43.875Z,2.60
2023-03-15T02:24:27.257Z,2.90
2023-03-15T02:26:59.978Z,2.90
2023-03-15T02:29:32.845Z,3.00
2023-03-15T02:32:05.204Z,2.50
2023-03-15T02:34:36.942Z,2.40
2023-03-15T02:37:08.933Z,2.10
2023-03-15T02:39:40.776Z,2.30
2023-03-15T02:42:13.232Z,2.30
2023-03-15T02:44:47.150Z,2.80
2023-03-15T02:47:23.742Z,2.30
2023-03-15T02:49:56.179Z,3.00
2023-03-15T02:52:28.304Z,2.80
2023-03-15T02:55:02.150Z,2.50
2023-03-15T02:57:34.094Z,2.80
2023-03-15T03:00:14.154Z,2.20
2023-03-15T03:02:47.744Z,2.80
2023-03-15T03:05:20.672Z,2.80
2023-03-15T03:07:53.084Z,2.90
2023-03-15T03:10:25.309Z,1.60
2023-03-15T03:13:00.354Z,2.40
2023-03-15T03:15:36.614Z,2.70
2023-03-15T03:18:10.116Z,2.10
2023-03-15T03:20:46.135Z,2.40
2023-03-15T03:23:19.095Z,3.00
2023-03-15T03:25:50.930Z,2.50
2023-03-15T03:28:24.113Z,2.90
2023-03-15T03:30:58.526Z,2.60
2023-03-15T03:33:32.662Z,2.80
2023-03-15T03:36:05.335Z,2.60
2023-03-15T03:38:37.464Z,2.40
2023-03-15T03:41:09.465Z,3.20
2023-03-15T03:43:42.763Z,2.10
2023-03-15T03:46:14.906Z,1.80
2023-03-15T03:48:50.651Z,2.10
2023-03-15T03:51:23.711Z,2.80
2023-03-15T03:53:56.372Z,2.40
2023-03-15T03:56:28.679Z,2.40
2023-03-15T03:59:00.612Z,2.50
2023-03-15T04:01:43.109Z,2.40
2023-03-15T04:04:17.686Z,2.90
2023-03-15T04:06:51.017Z,2.60
2023-03-15T04:09:28.539Z,2.50
2023-03-15T04:12:01.740Z,1.70
2023-03-15T04:14:34.690Z,2.20
2023-03-15T04:17:10.670Z,2.30
2023-03-15T04:19:46.997Z,2.40
2023-03-15T04:22:22.032Z,2.90
2023-03-15T04:25:10.895Z,2.00
2023-03-15T04:27:59.613Z,2.20
2023-03-15T04:30:52.368Z,2.60
2023-03-15T04:33:47.036Z,2.80
2023-03-15T04:36:42.721Z,2.40
2023-03-15T04:39:44.045Z,2.40
2023-03-15T04:42:40.630Z,2.50
2023-03-15T04:45:29.811Z,2.60
2023-03-15T04:48:20.655Z,2.60
2023-03-15T04:51:25.062Z,2.10
2023-03-15T04:54:24.907Z,2.60
2023-03-15T04:57:21.532Z,2.70
2023-03-15T05:00:14.411Z,2.10
2023-03-15T05:03:19.311Z,2.20
2023-03-15T05:06:10.555Z,2.10
2023-03-15T05:09:00.316Z,2.30
2023-03-15T05:11:50.944Z,2.60
2023-03-15T05:14:54.288Z,2.70
2023-03-15T05:18:00.558Z,2.90
2023-03-15T05:20:38.358Z,3.10
2023-03-15T05:23:17.120Z,3.00
2023-03-15T05:26:09.342Z,3.30
2023-03-15T05:29:16.865Z,2.70
2023-03-15T05:32:05.330Z,2.80
2023-03-15T05:34:49.098Z,3.10
2023-03-15T05:37:32.858Z,3.80
2023-03-15T05:40:30.074Z,3.70
2023-03-15T05:43:15.584Z,3.40
2023-03-15T05:46:17.173Z,2.50
2023-03-15T05:49:09.406Z,3.00
2023-03-15T05:51:46.855Z,3.20
2023-03-15T05:54:28.908Z,2.50
2023-03-15T05:57:23.880Z,2.80
2023-03-15T06:00:23.309Z,3.60
2023-03-15T06:02:55.561Z,2.80
2023-03-15T06:05:35.519Z,3.20
2023-03-15T06:08:08.895Z,2.90
2023-03-15T06:10:44.669Z,2.80
2023-03-15T06:13:18.329Z,3.80
2023-03-15T06:15:50.835Z,3.00
2023-03-15T06:18:23.945Z,3.50
2023-03-15T06:20:56.283Z,3.20
2023-03-15T06:23:28.405Z,4.00
2023-03-15T06:26:00.436Z,4.10
2023-03-15T06:28:34.062Z,4.10
2023-03-15T06:31:10.174Z,4.10
2023-03-15T06:33:47.138Z,4.10
2023-03-15T06:36:19.075Z,3.90
2023-03-15T06:38:50.983Z,4.00
2023-03-15T06:41:22.981Z,4.20
2023-03-15T06:44:00.677Z,3.90
2023-03-15T06:46:33.339Z,3.70
2023-03-15T06:49:05.282Z,2.80
2023-03-15T06:51:37.115Z,2.40
2023-03-15T06:54:09.304Z,3.50
2023-03-15T06:56:41.424Z,3.60
2023-03-15T06:59:13.307Z,3.60
2023-03-15T07:01:45.623Z,4.00
2023-03-15T07:04:17.502Z,3.90
2023-03-15T07:06:49.404Z,4.80
2023-03-15T07:09:21.584Z,3.50
2023-03-15T07:11:53.562Z,3.70
2023-03-15T07:14:25.764Z,2.60
2023-03-15T07:16:57.645Z,3.60
2023-03-15T07:19:29.474Z,3.90
2023-03-15T07:22:01.308Z,4.60
2023-03-15T07:24:33.389Z,4.00
2023-03-15T07:27:05.868Z,6.10
2023-03-15T07:29:37.926Z,4.40
2023-03-15T07:32:10.107Z,3.60
2023-03-15T07:34:42.730Z,3.30
2023-03-15T07:39:45.119Z,3.00
2023-03-15T07:42:17.136Z,3.20
2023-03-15T07:44:49.139Z,3.00
2023-03-15T07:47:21.080Z,3.20
2023-03-15T07:49:53.420Z,2.60
2023-03-15T07:52:25.533Z,3.20
2023-03-15T07:54:57.609Z,3.10
2023-03-15T07:57:30.098Z,3.10
2023-03-15T08:00:02.026Z,2.70
2023-03-15T08:02:44.262Z,3.50
2023-03-15T08:05:18.897Z,3.40
2023-03-15T08:07:51.760Z,2.50
2023-03-15T08:12:54.140Z,3.30
2023-03-15T08:15:27.054Z,3.00
2023-03-15T08:17:59.838Z,3.30
2023-03-15T08:20:33.971Z,3.80
2023-03-15T08:23:06.315Z,3.20
2023-03-15T08:25:40.922Z,3.30
2023-03-15T08:28:13.473Z,3.50
2023-03-15T08:30:45.542Z,3.10
2023-03-15T08:33:17.513Z,3.50
2023-03-15T08:35:54.994Z,3.00
2023-03-15T08:38:27.396Z,3.10
2023-03-15T08:41:02.037Z,3.40
2023-03-15T08:43:34.114Z,4.10
2023-03-15T08:46:06.201Z,3.30
2023-03-15T08:48:38.092Z,3.20
2023-03-15T08:51:10.256Z,3.80
2023-03-15T08:53:42.167Z,5.00
2023-03-15T08:56:14.202Z,2.10
2023-03-15T08:58:48.519Z,4.60
2023-03-15T09:01:20.376Z,3.60
2023-03-15T09:03:52.391Z,3.70
2023-03-15T09:06:24.469Z,3.80
2023-03-15T09:08:56.502Z,3.70
2023-03-15T09:11:28.481Z,3.80
2023-03-15T09:14:00.436Z,2.60
2023-03-15T09:16:35.043Z,2.90
2023-03-15T09:19:07.301Z,3.40
2023-03-15T09:21:39.175Z,3.60
2023-03-15T09:24:11.190Z,3.90
2023-03-15T09:26:43.133Z,2.80
2023-03-15T09:29:15.028Z,3.30
2023-03-15T09:31:47.515Z,3.10
2023-03-15T09:36:53.043Z,3.30
2023-03-15T09:39:25.506Z,2.80
2023-03-15T09:41:59.215Z,3.10
2023-03-15T09:44:40.277Z,2.90
2023-03-15T09:47:30.056Z,2.90
2023-03-15T09:50:07.254Z,2.60
2023-03-15T09:52:43.932Z,2.30
2023-03-15T09:55:21.823Z,3.10
2023-03-15T09:57:57.585Z,2.80
2023-03-15T10:00:38.153Z,3.00
2023-03-15T10:03:18.125Z,3.20
2023-03-15T10:05:55.293Z,3.00
2023-03-15T10:08:27.971Z,3.00
2023-03-15T10:11:09.782Z,3.20
2023-03-15T10:13:53.605Z,2.50
2023-03-15T10:16:38.152Z,2.50
2023-03-15T10:19:18.693Z,2.70
2023-03-15T10:21:59.123Z,2.60
2023-03-15T10:24:38.706Z,3.00
2023-03-15T10:27:21.120Z,3.20
2023-03-15T10:29:56.527Z,2.50
2023-03-15T10:32:32.413Z,2.30
2023-03-15T10:35:11.783Z,2.50
2023-03-15T10:37:44.160Z,2.30
2023-03-15T10:40:37.381Z,2.40
2023-03-15T10:45:59.201Z,1.90
2023-03-15T10:48:33.073Z,2.70
2023-03-15T10:51:08.599Z,2.60
2023-03-15T10:53:53.010Z,3.10
2023-03-15T10:56:27.861Z,3.80
2023-03-15T10:59:12.320Z,2.60
2023-03-15T11:01:48.164Z,2.70
2023-03-15T11:04:23.188Z,2.00
2023-03-15T11:07:04.113Z,1.70
2023-03-15T11:09:43.586Z,1.40
2023-03-15T11:12:24.172Z,2.10
2023-03-15T11:15:01.959Z,1.80
2023-03-15T11:17:36.889Z,2.10
2023-03-15T11:20:27.598Z,1.20
2023-03-15T11:23:00.829Z,2.00
2023-03-15T11:25:34.334Z,2.20
2023-03-15T11:28:06.446Z,2.10
2023-03-15T11:30:40.190Z,1.70
2023-03-15T11:33:27.202Z,1.90
2023-03-15T11:36:01.267Z,2.00
2023-03-15T11:38:38.687Z,3.50
2023-03-15T11:41:19.717Z,2.30
2023-03-15T11:44:00.717Z,2.20
2023-03-15T11:46:40.318Z,1.80
2023-03-15T11:49:18.216Z,2.50
2023-03-15T11:51:51.038Z,1.90
2023-03-15T11:56:57.395Z,2.60
2023-03-15T11:59:32.702Z,3.60
2023-03-15T12:02:51.912Z,2.10
2023-03-15T12:05:49.576Z,2.00
2023-03-15T12:08:26.021Z,2.80
2023-03-15T12:10:59.240Z,1.30
2023-03-15T12:13:33.213Z,2.40
2023-03-15T12:16:08.538Z,1.70
2023-03-15T12:18:45.876Z,1.70
2023-03-15T12:21:24.824Z,2.30
2023-03-15T12:24:03.945Z,2.40
2023-03-15T12:26:42.084Z,1.90
2023-03-15T12:29:24.487Z,1.90
2023-03-15T12:32:00.115Z,2.20
2023-03-15T12:34:44.486Z,2.10
2023-03-15T12:37:24.060Z,2.60
2023-03-15T12:40:05.330Z,2.20
2023-03-15T12:43:13.209Z,2.20
2023-03-15T12:45:49.108Z,2.60
2023-03-15T12:48:32.338Z,2.50
2023-03-15T12:51:11.556Z,2.00
2023-03-15T12:53:51.504Z,2.20
2023-03-15T12:56:32.622Z,2.40
2023-03-15T12:59:14.520Z,2.90
2023-03-15T13:01:46.741Z,2.60
2023-03-15T13:04:18.731Z,2.90
2023-03-15T13:07:03.663Z,2.80
2023-03-15T13:10:00.417Z,2.50
2023-03-15T13:12:40.674Z,2.20
2023-03-15T13:15:19.596Z,2.40
2023-03-15T13:17:55.504Z,1.70
2023-03-15T13:20:42.261Z,2.30
2023-03-15T13:23:19.700Z,1.50
2023-03-15T13:26:04.636Z,2.20
2023-03-15T13:28:39.854Z,2.70
2023-03-15T13:31:22.021Z,2.40
2023-03-15T13:33:57.408Z,2.70
2023-03-15T13:36:40.010Z,2.60
2023-03-15T13:39:23.175Z,3.30
2023-03-15T13:42:01.599Z,4.50
2023-03-15T13:44:34.661Z,2.50
2023-03-15T13:47:07.073Z,2.50
2023-03-15T13:49:38.881Z,2.50
2023-03-15T13:52:14.797Z,1.20
2023-03-15T13:54:46.767Z,1.80
2023-03-15T13:57:21.971Z,1.40
2023-03-15T13:59:59.493Z,1.60
2023-03-15T14:02:39.331Z,1.80
2023-03-15T14:05:15.086Z,1.90
2023-03-15T14:07:49.651Z,2.10
2023-03-15T14:10:32.785Z,2.10
2023-03-15T14:13:22.680Z,2.20
2023-03-15T14:16:00.141Z,2.90
2023-03-15T14:18:38.762Z,3.50
2023-03-15T14:21:17.214Z,3.10
2023-03-15T14:23:50.598Z,2.40
2023-03-15T14:26:28.054Z,2.30
2023-03-15T14:29:07.550Z,2.50
2023-03-15T14:31:42.747Z,2.40
2023-03-15T14:34:24.482Z,2.10
2023-03-15T14:36:59.763Z,1.70
2023-03-15T14:39:38.398Z,2.50
2023-03-15T14:42:12.857Z,2.00
2023-03-15T14:44:44.768Z,1.40
2023-03-15T14:47:18.714Z,1.50
2023-03-15T14:49:50.663Z,2.00
2023-03-15T14:52:25.633Z,2.00
2023-03-15T14:54:59.022Z,2.40
2023-03-15T14:57:31.825Z,2.10
2023-03-15T15:00:04.488Z,2.00
2023-03-15T15:05:17.893Z,3.10
2023-03-15T15:07:50.102Z,2.00
2023-03-15T15:10:22.782Z,2.10
2023-03-15T15:13:05.652Z,2.50
2023-03-15T15:15:53.983Z,1.90
2023-03-15T15:18:28.419Z,1.80
2023-03-15T15:21:04.071Z,2.10
2023-03-15T15:23:54.776Z,2.40
2023-03-15T15:29:01.723Z,2.60
2023-03-15T15:34:06.363Z,2.30
2023-03-15T15:36:40.975Z,2.40
2023-03-15T15:39:22.493Z,2.80
2023-03-15T15:41:54.408Z,2.60
2023-03-15T15:44:27.011Z,2.20
2023-03-15T15:47:01.155Z,2.20
2023-03-15T15:49:33.042Z,3.10
2023-03-15T15:52:05.930Z,2.30
2023-03-15T15:54:37.949Z,2.80
2023-03-15T15:57:12.789Z,2.70
2023-03-15T15:59:45.870Z,2.20
2023-03-15T16:04:55.342Z,2.70
2023-03-15T16:07:27.607Z,2.70
2023-03-15T16:10:01.868Z,2.70
2023-03-15T16:12:34.752Z,2.90
2023-03-15T16:15:08.030Z,3.10
2023-03-15T16:17:40.431Z,3.80
2023-03-15T16:20:14.226Z,3.10
2023-03-15T16:22:48.979Z,3.70
2023-03-15T16:25:24.941Z,4.00
2023-03-15T16:27:58.138Z,3.10
2023-03-15T16:30:33.127Z,3.30
2023-03-15T16:33:10.945Z,2.90
2023-03-15T16:35:43.681Z,3.00
2023-03-15T16:40:48.819Z,4.30
2023-03-15T16:43:21.341Z,3.50
2023-03-15T16:45:53.796Z,4.00
2023-03-15T16:48:25.603Z,5.00
2023-03-15T16:50:57.476Z,5.60
2023-03-15T16:53:29.490Z,6.10
2023-03-15T16:56:01.436Z,6.60
2023-03-15T16:58:33.454Z,7.40
2023-03-15T17:01:08.338Z,5.60
2023-03-15T17:03:40.415Z,8.70
2023-03-15T17:06:20.286Z,10.30
2023-03-15T17:08:54.878Z,11.60
2023-03-15T17:11:30.552Z,12.10
2023-03-15T17:14:04.132Z,11.40
2023-03-15T17:16:37.104Z,10.60
2023-03-15T17:19:13.483Z,9.90
2023-03-15T17:21:45.604Z,10.30
2023-03-15T17:24:17.797Z,8.60
2023-03-15T17:26:49.899Z,7.20
2023-03-15T17:29:21.801Z,7.00
2023-03-15T17:31:54.081Z,7.90
2023-03-15T17:34:26.759Z,7.80
2023-03-15T17:39:29.524Z,7.90
2023-03-15T17:42:01.649Z,8.30
2023-03-15T17:44:33.717Z,8.00
2023-03-15T17:47:08.484Z,8.30
2023-03-15T17:49:41.648Z,8.70
2023-03-15T17:52:17.247Z,8.70
2023-03-15T17:54:49.153Z,8.00
2023-03-15T17:57:21.421Z,8.60
2023-03-15T18:02:25.948Z,8.20
2023-03-15T18:04:58.416Z,7.90
2023-03-15T18:07:34.230Z,8.50
2023-03-15T18:10:07.669Z,8.50
2023-03-15T18:12:39.574Z,8.10
2023-03-15T18:15:14.397Z,8.20
2023-03-15T18:17:47.310Z,8.50
2023-03-15T18:20:22.151Z,9.20
2023-03-15T18:22:54.629Z,9.60
2023-03-15T18:25:29.907Z,10.20
2023-03-15T18:28:02.275Z,10.00
2023-03-15T18:30:35.041Z,10.20
2023-03-15T18:33:07.616Z,10.00
2023-03-15T18:35:39.897Z,12.10
2023-03-15T18:38:16.312Z,11.90
2023-03-15T18:40:51.081Z,13.30
2023-03-15T18:43:23.927Z,12.80
2023-03-15T18:45:55.918Z,14.70
2023-03-15T18:48:39.727Z,16.50
2023-03-15T18:51:17.930Z,26.00
2023-03-15T18:53:50.400Z,25.50
2023-03-15T18:56:24.362Z,24.50
2023-03-15T18:58:57.014Z,22.10
2023-03-15T19:04:00.478Z,19.20
2023-03-15T19:06:32.624Z,18.10
2023-03-15T19:09:05.496Z,17.90
2023-03-15T19:11:41.669Z,17.90
2023-03-15T19:14:14.042Z,17.50
2023-03-15T19:16:45.895Z,18.90
2023-03-15T19:19:18.088Z,16.70
2023-03-15T19:21:50.044Z,19.60
2023-03-15T19:24:22.289Z,21.40
2023-03-15T19:26:54.127Z,17.40
2023-03-15T19:29:26.184Z,18.80
2023-03-15T19:31:58.805Z,21.90
2023-03-15T19:34:31.867Z,19.40
2023-03-15T19:37:03.711Z,34.90
2023-03-15T19:39:37.722Z,19.90
2023-03-15T19:42:09.858Z,20.10
2023-03-15T19:44:43.559Z,21.10
2023-03-15T19:47:15.490Z,17.90
2023-03-15T19:49:47.399Z,20.10
2023-03-15T19:52:19.391Z,20.10
2023-03-15T19:54:51.814Z,20.60
2023-03-15T19:57:24.666Z,20.50
2023-03-15T19:59:56.502Z,23.50
2023-03-15T20:02:28.433Z,22.50
2023-03-15T20:05:00.966Z,21.60
2023-03-15T20:07:33.450Z,20.10
2023-03-15T20:12:38.904Z,19.80
2023-03-15T20:15:13.286Z,21.10
2023-03-15T20:17:45.816Z,23.10
2023-03-15T20:20:18.642Z,21.20
2023-03-15T20:22:50.454Z,24.00
2023-03-15T20:25:22.517Z,27.50
2023-03-15T20:27:54.590Z,23.40
2023-03-15T20:30:26.469Z,28.80
2023-03-15T20:32:58.327Z,31.10
2023-03-15T20:35:30.128Z,22.10
2023-03-15T20:38:06.642Z,31.50
2023-03-15T20:40:40.203Z,28.60
2023-03-15T20:43:12.534Z,29.70
2023-03-15T20:45:44.479Z,27.30
2023-03-15T20:48:16.659Z,18.80
2023-03-15T20:50:49.551Z,28.20
2023-03-15T20:53:21.842Z,25.60
2023-03-15T20:55:53.749Z,24.40
2023-03-15T20:58:25.786Z,25.30
2023-03-15T21:01:06.302Z,22.40
2023-03-15T21:03:39.725Z,21.20
2023-03-15T21:06:12.275Z,23.40
2023-03-15T21:08:46.072Z,23.10
2023-03-15T21:11:18.097Z,23.30
2023-03-15T21:13:49.987Z,25.20
2023-03-15T21:16:21.960Z,27.30
2023-03-15T21:18:54.819Z,19.60
2023-03-15T21:21:26.697Z,27.30
2023-03-15T21:23:58.555Z,22.70
2023-03-15T21:26:30.464Z,30.00
2023-03-15T21:29:02.302Z,28.20
2023-03-15T21:31:36.530Z,21.40
2023-03-15T21:34:08.497Z,33.00
2023-03-15T21:36:40.468Z,31.30
2023-03-15T21:39:12.278Z,31.60
2023-03-15T21:41:44.140Z,28.80
2023-03-15T21:44:16.227Z,26.00
2023-03-15T21:46:48.203Z,26.00
2023-03-15T21:49:21.287Z,25.20
2023-03-15T21:51:53.138Z,25.10
2023-03-15T21:54:24.982Z,22.60
2023-03-15T21:56:56.820Z,24.80
2023-03-15T21:59:29.137Z,19.60
2023-03-15T22:02:01.810Z,24.20
2023-03-15T22:04:34.079Z,22.40
2023-03-15T22:07:06.131Z,21.50
2023-03-15T22:09:38.279Z,22.00
2023-03-15T22:12:11.646Z,22.00
2023-03-15T22:14:45.909Z,21.90
2023-03-15T22:17:19.459Z,22.20
2023-03-15T22:19:51.522Z,21.10
2023-03-15T22:22:24.971Z,23.40
2023-03-15T22:24:56.727Z,22.20
2023-03-15T22:27:28.584Z,18.70
2023-03-15T22:30:00.497Z,12.60
2023-03-15T22:32:32.406Z,19.20
2023-03-15T22:35:05.656Z,21.30
2023-03-15T22:40:09.791Z,19.00
2023-03-15T22:42:41.963Z,19.00
2023-03-15T22:45:14.129Z,13.50
2023-03-15T22:47:46.273Z,16.00
2023-03-15T22:50:18.478Z,17.60
2023-03-15T22:52:51.758Z,16.00
2023-03-15T22:55:24.731Z,16.40
2023-03-15T22:57:56.742Z,15.70
2023-03-15T23:00:30.089Z,15.30
2023-03-15T23:03:01.926Z,14.10
2023-03-15T23:05:34.617Z,14.20
2023-03-15T23:10:37.780Z,12.60
2023-03-15T23:13:09.810Z,12.80
2023-03-15T23:15:41.733Z,13.50
2023-03-15T23:18:14.987Z,12.90
2023-03-15T23:20:46.922Z,13.20
2023-03-15T23:23:18.768Z,11.90
2023-03-15T23:25:53.958Z,9.50
2023-03-15T23:28:25.962Z,11.50
2023-03-15T23:31:00.610Z,10.90
2023-03-15T23:33:34.076Z,11.30
2023-03-15T23:36:08.191Z,10.40
2023-03-15T23:38:40.051Z,9.20
2023-03-15T23:41:12.562Z,10.30
2023-03-15T23:43:44.308Z,11.60
2023-03-15T23:46:16.817Z,11.60
2023-03-15T23:48:48.788Z,11.50
2023-03-15T23:51:22.423Z,9.60
2023-03-15T23:53:54.227Z,10.70
2023-03-15T23:56:26.345Z,8.60
2023-03-15T23:58:58.682Z,10.60
